Time;durP1;ratioP1;P1;durP2;ratioP2;P2;SDS_P1;SDS_P2;PMS_P1;PMS_P2;Temp;Humidity;BMP_temperature;BMP_pressure;BME280_temperature;BME280_humidity;BME280_pressure;Samples;Min_cycle;Max_cycle;Signal;HPM_P1;HPM_P2
2021/06/21 00:00:15;;;;;;;0.10;0.10;;;;;;;;;;4946313;29;20501;-86
2021/06/21 00:02:43;;;;;;;0.10;0.10;;;;;;;;;;4945797;29;20565;-85
2021/06/21 00:05:11;;;;;;;0.10;0.10;;;;;;;;;;4930019;29;20040;-85
2021/06/21 00:07:37;;;;;;;0.10;0.10;;;;;;;;;;4930123;29;20104;-84
2021/06/21 00:10:04;;;;;;;0.20;0.20;;;;;;;;;;4930397;29;20044;-85
2021/06/21 00:12:31;;;;;;;0.10;0.10;;;;;;;;;;4949629;29;20072;-85
2021/06/21 00:14:57;;;;;;;0.10;0.10;;;;;;;;;;4933971;29;20047;-85
2021/06/21 00:17:23;;;;;;;0.10;0.10;;;;;;;;;;4949896;28;20040;-85
2021/06/21 00:19:49;;;;;;;0.10;0.10;;;;;;;;;;4950007;29;20095;-85
2021/06/21 00:22:15;;;;;;;0.10;0.10;;;;;;;;;;4949721;29;20036;-85
2021/06/21 00:24:42;;;;;;;0.10;0.10;;;;;;;;;;4949722;29;20066;-85
2021/06/21 00:27:08;;;;;;;0.20;0.20;;;;;;;;;;4949461;28;20075;-85
2021/06/21 00:29:34;;;;;;;0.20;0.20;;;;;;;;;;4949540;29;20082;-85
2021/06/21 00:32:00;;;;;;;0.10;0.10;;;;;;;;;;4949479;29;20501;-86
2021/06/21 00:34:26;;;;;;;0.20;0.20;;;;;;;;;;4933661;29;20405;-85
2021/06/21 00:36:52;;;;;;;0.10;0.10;;;;;;;;;;4949598;28;20040;-85
2021/06/21 00:39:18;;;;;;;0.15;0.15;;;;;;;;;;4949435;29;20044;-85
2021/06/21 00:41:44;;;;;;;0.10;0.10;;;;;;;;;;4933353;29;20052;-85
2021/06/21 00:44:11;;;;;;;0.10;0.10;;;;;;;;;;4949384;29;20044;-85
2021/06/21 00:46:37;;;;;;;0.10;0.10;;;;;;;;;;4949195;29;20111;-84
2021/06/21 00:49:03;;;;;;;0.10;0.10;;;;;;;;;;4949302;29;20372;-85
2021/06/21 00:51:29;;;;;;;0.10;0.10;;;;;;;;;;4933192;29;20067;-85
2021/06/21 00:53:55;;;;;;;0.10;0.10;;;;;;;;;;4918830;29;20051;-85
2021/06/21 00:56:21;;;;;;;0.10;0.10;;;;;;;;;;4917507;29;20044;-85
2021/06/21 00:58:47;;;;;;;0.17;0.17;;;;;;;;;;4933259;29;20044;-85
2021/06/21 01:01:13;;;;;;;0.10;0.10;;;;;;;;;;4949066;29;20519;-84
2021/06/21 01:03:40;;;;;;;0.10;0.10;;;;;;;;;;4948647;29;20100;-84
2021/06/21 01:06:07;;;;;;;0.10;0.10;;;;;;;;;;4918439;29;20474;-84
2021/06/21 01:08:33;;;;;;;0.10;0.10;;;;;;;;;;4948632;28;20084;-85
2021/06/21 01:10:59;;;;;;;0.10;0.10;;;;;;;;;;4948611;29;20050;-83
2021/06/21 01:13:44;;;;;;;0.10;0.10;;;;;;;;;;4948875;29;20115;-84
2021/06/21 01:16:16;;;;;;;0.10;0.10;;;;;;;;;;4918338;29;20044;-84
2021/06/21 01:18:45;;;;;;;0.10;0.10;;;;;;;;;;4918371;29;20040;-85
2021/06/21 01:21:14;;;;;;;0.10;0.10;;;;;;;;;;4948413;29;20478;-84
2021/06/21 01:23:40;;;;;;;0.10;0.10;;;;;;;;;;4931801;29;20032;-84
2021/06/21 01:26:19;;;;;;;0.10;0.10;;;;;;;;;;4918146;29;20044;-85
2021/06/21 01:29:08;;;;;;;0.10;0.10;;;;;;;;;;4948412;29;20042;-85
2021/06/21 01:31:41;;;;;;;0.10;0.10;;;;;;;;;;4917914;29;20115;-84
2021/06/21 01:34:07;;;;;;;0.10;0.10;;;;;;;;;;4948405;29;20044;-85
2021/06/21 01:36:33;;;;;;;0.10;0.10;;;;;;;;;;4932479;29;20126;-84
2021/06/21 01:39:02;;;;;;;0.20;0.20;;;;;;;;;;4931961;29;20044;-84
2021/06/21 01:41:33;;;;;;;0.20;0.20;;;;;;;;;;4916655;29;20072;-84
2021/06/21 01:43:59;;;;;;;0.10;0.10;;;;;;;;;;4948167;29;20040;-83
2021/06/21 01:46:27;;;;;;;0.20;0.20;;;;;;;;;;4932273;29;20047;-85
2021/06/21 01:48:55;;;;;;;0.10;0.10;;;;;;;;;;4932288;29;20064;-85
2021/06/21 01:51:21;;;;;;;0.10;0.10;;;;;;;;;;4932237;29;20036;-85
2021/06/21 01:53:48;;;;;;;0.30;0.30;;;;;;;;;;4948185;29;20079;-85
2021/06/21 01:56:15;;;;;;;0.10;0.10;;;;;;;;;;4948023;29;20050;-85
2021/06/21 01:58:41;;;;;;;0.30;0.30;;;;;;;;;;4947938;29;20465;-85
2021/06/21 02:01:14;;;;;;;0.10;0.10;;;;;;;;;;4932072;29;20063;-84
2021/06/21 02:03:46;;;;;;;0.10;0.10;;;;;;;;;;4946085;29;20044;-84
2021/06/21 02:06:12;;;;;;;0.70;0.40;;;;;;;;;;4947674;29;20044;-85
2021/06/21 02:08:39;;;;;;;0.10;0.10;;;;;;;;;;4947544;28;20080;-85
2021/06/21 02:11:05;;;;;;;0.10;0.10;;;;;;;;;;4947737;29;20040;-85
2021/06/21 02:13:31;;;;;;;0.10;0.10;;;;;;;;;;4947706;29;20098;-85
2021/06/21 02:15:57;;;;;;;0.20;0.20;;;;;;;;;;4947862;29;20482;-85
2021/06/21 02:18:23;;;;;;;0.10;0.10;;;;;;;;;;4931650;29;20055;-85
2021/06/21 02:20:49;;;;;;;0.10;0.10;;;;;;;;;;4947659;29;20048;-85
2021/06/21 02:23:15;;;;;;;0.10;0.10;;;;;;;;;;4947542;28;20044;-85
2021/06/21 02:25:46;;;;;;;0.10;0.10;;;;;;;;;;4946341;29;20141;-85
2021/06/21 02:28:13;;;;;;;0.10;0.10;;;;;;;;;;4947373;28;20040;-85
2021/06/21 02:30:39;;;;;;;0.10;0.10;;;;;;;;;;4931434;29;20056;-85
2021/06/21 02:33:05;;;;;;;0.10;0.10;;;;;;;;;;4947175;29;20084;-85
2021/06/21 02:35:31;;;;;;;0.10;0.10;;;;;;;;;;4917102;29;20056;-85
2021/06/21 02:37:57;;;;;;;0.10;0.10;;;;;;;;;;4947336;28;20040;-84
2021/06/21 02:40:25;;;;;;;0.10;0.10;;;;;;;;;;4930967;29;20036;-85
2021/06/21 02:42:52;;;;;;;0.10;0.10;;;;;;;;;;4916774;29;20714;-85
2021/06/21 02:45:18;;;;;;;0.10;0.10;;;;;;;;;;4931251;29;20044;-84
2021/06/21 02:47:44;;;;;;;0.10;0.10;;;;;;;;;;4915411;29;20043;-85
2021/06/21 02:50:10;;;;;;;0.10;0.10;;;;;;;;;;4916653;29;20554;-85
2021/06/21 02:52:39;;;;;;;0.10;0.10;;;;;;;;;;4946873;29;20044;-84
2021/06/21 02:55:09;;;;;;;0.10;0.10;;;;;;;;;;4916492;29;20044;-85
2021/06/21 02:57:45;;;;;;;0.10;0.10;;;;;;;;;;4930942;29;20067;-85
2021/06/21 03:00:12;;;;;;;0.10;0.10;;;;;;;;;;4946806;29;20036;-84
2021/06/21 03:02:38;;;;;;;0.10;0.10;;;;;;;;;;4946843;29;20255;-85
2021/06/21 03:05:06;;;;;;;0.10;0.10;;;;;;;;;;4946465;29;20044;-85
2021/06/21 03:07:32;;;;;;;0.10;0.10;;;;;;;;;;4946671;28;20036;-86
2021/06/21 03:09:58;;;;;;;0.30;0.30;;;;;;;;;;4916109;29;20048;-85
2021/06/21 03:12:25;;;;;;;0.10;0.10;;;;;;;;;;4946640;29;20050;-86
2021/06/21 03:14:51;;;;;;;0.10;0.10;;;;;;;;;;4946549;29;20487;-86
2021/06/21 03:17:17;;;;;;;0.10;0.10;;;;;;;;;;4930579;29;20095;-86
2021/06/21 03:19:44;;;;;;;0.10;0.10;;;;;;;;;;4930753;29;20107;-86
2021/06/21 03:22:11;;;;;;;0.10;0.10;;;;;;;;;;4930306;29;20510;-86
2021/06/21 03:24:36;;;;;;;0.10;0.10;;;;;;;;;;4946209;29;20123;-85
2021/06/21 03:27:03;;;;;;;0.10;0.10;;;;;;;;;;4946097;28;20044;-86
2021/06/21 03:29:29;;;;;;;0.10;0.10;;;;;;;;;;4915740;29;20625;-85
2021/06/21 03:31:56;;;;;;;0.10;0.10;;;;;;;;;;4946086;29;20486;-86
2021/06/21 03:34:24;;;;;;;0.10;0.10;;;;;;;;;;4945885;29;20537;-86
2021/06/21 03:36:50;;;;;;;0.10;0.10;;;;;;;;;;4929860;29;20470;-86
2021/06/21 03:39:16;;;;;;;0.10;0.10;;;;;;;;;;4930129;29;20052;-86
2021/06/21 03:41:43;;;;;;;0.10;0.10;;;;;;;;;;4915702;29;20047;-86
2021/06/21 03:44:09;;;;;;;0.10;0.10;;;;;;;;;;4946106;29;20068;-86
2021/06/21 03:46:35;;;;;;;0.20;0.20;;;;;;;;;;4945647;29;20044;-86
2021/06/21 03:49:01;;;;;;;0.10;0.10;;;;;;;;;;4914454;29;20466;-86
2021/06/21 03:51:27;;;;;;;0.10;0.10;;;;;;;;;;4945925;29;20040;-86
2021/06/21 03:53:53;;;;;;;0.10;0.10;;;;;;;;;;4945991;29;20050;-86
2021/06/21 03:56:19;;;;;;;0.10;0.10;;;;;;;;;;4929843;29;20458;-86
2021/06/21 03:58:48;;;;;;;0.10;0.10;;;;;;;;;;4930067;29;20036;-85
2021/06/21 04:01:14;;;;;;;0.10;0.10;;;;;;;;;;4945298;29;20055;-86
2021/06/21 04:03:40;;;;;;;0.10;0.10;;;;;;;;;;4915246;29;20060;-85
2021/06/21 04:06:08;;;;;;;0.22;0.22;;;;;;;;;;4915377;29;20052;-86
2021/06/21 04:08:34;;;;;;;0.10;0.10;;;;;;;;;;4945650;28;20086;-85
2021/06/21 04:11:00;;;;;;;0.10;0.10;;;;;;;;;;4945925;29;20068;-85
2021/06/21 04:13:28;;;;;;;0.10;0.10;;;;;;;;;;4929971;29;20040;-85
2021/06/21 04:15:54;;;;;;;0.10;0.10;;;;;;;;;;4945445;29;20056;-85
2021/06/21 04:18:20;;;;;;;0.10;0.10;;;;;;;;;;4945796;28;20044;-85
2021/06/21 04:20:47;;;;;;;0.20;0.20;;;;;;;;;;4930139;29;20383;-85
2021/06/21 04:23:13;;;;;;;0.10;0.10;;;;;;;;;;4915448;29;20052;-85
2021/06/21 04:25:40;;;;;;;0.10;0.10;;;;;;;;;;4945630;29;20123;-85
2021/06/21 04:28:07;;;;;;;0.10;0.10;;;;;;;;;;4945847;28;20036;-85
2021/06/21 04:30:34;;;;;;;0.17;0.17;;;;;;;;;;4929937;29;20040;-85
2021/06/21 04:33:01;;;;;;;0.10;0.10;;;;;;;;;;4945618;29;20048;-85
2021/06/21 04:35:27;;;;;;;0.10;0.10;;;;;;;;;;4915383;29;20132;-85
2021/06/21 04:37:53;;;;;;;0.10;0.10;;;;;;;;;;4913993;29;20455;-85
2021/06/21 04:40:20;;;;;;;0.10;0.10;;;;;;;;;;4914055;29;20051;-85
2021/06/21 04:42:47;;;;;;;0.10;0.10;;;;;;;;;;4915130;29;20040;-85
2021/06/21 04:45:13;;;;;;;0.10;0.10;;;;;;;;;;4945503;29;20145;-86
2021/06/21 04:47:39;;;;;;;0.10;0.10;;;;;;;;;;4945538;28;20048;-86
2021/06/21 04:50:08;;;;;;;0.10;0.10;;;;;;;;;;4945765;29;20123;-86
2021/06/21 04:52:38;;;;;;;0.15;0.15;;;;;;;;;;4915164;29;20123;-86
2021/06/21 04:55:04;;;;;;;0.10;0.10;;;;;;;;;;4915161;29;20130;-86
2021/06/21 04:57:33;;;;;;;0.10;0.10;;;;;;;;;;4946125;28;20044;-87
2021/06/21 04:59:59;;;;;;;0.10;0.10;;;;;;;;;;4932748;29;20036;-86
2021/06/21 05:02:25;;;;;;;0.32;0.32;;;;;;;;;;4948982;29;20143;-86
2021/06/21 05:04:51;;;;;;;0.10;0.10;;;;;;;;;;4948902;29;20482;-88
2021/06/21 05:07:18;;;;;;;0.10;0.10;;;;;;;;;;4948586;28;20127;-86
2021/06/21 05:09:44;;;;;;;0.10;0.10;;;;;;;;;;4947655;29;20494;-86
2021/06/21 05:12:11;;;;;;;0.20;0.20;;;;;;;;;;4932628;29;20083;-87
2021/06/21 05:14:37;;;;;;;0.10;0.10;;;;;;;;;;4932535;29;20414;-87
2021/06/21 05:17:03;;;;;;;0.10;0.10;;;;;;;;;;4948355;28;20096;-87
2021/06/21 05:19:29;;;;;;;0.10;0.10;;;;;;;;;;4917940;29;20047;-86
2021/06/21 05:21:55;;;;;;;0.10;0.10;;;;;;;;;;4948427;29;20118;-87
2021/06/21 05:24:21;;;;;;;0.10;0.10;;;;;;;;;;4948374;29;20036;-86
2021/06/21 05:26:47;;;;;;;0.10;0.10;;;;;;;;;;4932389;29;20044;-87
2021/06/21 05:29:13;;;;;;;0.10;0.10;;;;;;;;;;4916955;29;20048;-93
2021/06/21 05:31:40;;;;;;;0.10;0.10;;;;;;;;;;4949750;29;20469;-88
2021/06/21 05:34:07;;;;;;;0.10;0.10;;;;;;;;;;4932208;29;20509;-87
2021/06/21 05:36:32;;;;;;;0.10;0.10;;;;;;;;;;4932123;29;20043;-86
2021/06/21 05:38:58;;;;;;;0.10;0.10;;;;;;;;;;4917578;29;20036;-87
2021/06/21 05:41:25;;;;;;;0.15;0.15;;;;;;;;;;4947959;29;20032;-87
2021/06/21 05:43:51;;;;;;;0.10;0.10;;;;;;;;;;4948083;29;20131;-88
2021/06/21 05:46:17;;;;;;;0.10;0.10;;;;;;;;;;4948378;29;20096;-87
2021/06/21 05:48:43;;;;;;;0.20;0.20;;;;;;;;;;4946733;29;20079;-87
2021/06/21 05:51:09;;;;;;;0.10;0.10;;;;;;;;;;4900244;29;20493;-88
2021/06/21 05:53:35;;;;;;;0.10;0.10;;;;;;;;;;4930893;29;20040;-88
2021/06/21 05:56:01;;;;;;;0.15;0.15;;;;;;;;;;4931470;29;20046;-87
2021/06/21 05:58:27;;;;;;;0.10;0.10;;;;;;;;;;4916294;29;20123;-87
2021/06/21 06:00:53;;;;;;;0.10;0.10;;;;;;;;;;4916203;29;20044;-87
2021/06/21 06:03:19;;;;;;;0.25;0.25;;;;;;;;;;4916089;29;20052;-87
2021/06/21 06:05:45;;;;;;;0.10;0.10;;;;;;;;;;4947943;29;20509;-88
2021/06/21 06:08:13;;;;;;;0.10;0.10;;;;;;;;;;4947359;28;20041;-88
2021/06/21 06:10:39;;;;;;;0.10;0.10;;;;;;;;;;4947422;29;20060;-87
2021/06/21 06:13:05;;;;;;;0.10;0.10;;;;;;;;;;4931463;29;20052;-86
2021/06/21 06:15:31;;;;;;;0.10;0.10;;;;;;;;;;4916412;29;20040;-89
2021/06/21 06:17:57;;;;;;;0.10;0.10;;;;;;;;;;4933290;23;20067;-88
2021/06/21 06:20:23;;;;;;;0.10;0.10;;;;;;;;;;4896831;29;20048;-85
2021/06/21 06:22:49;;;;;;;0.20;0.20;;;;;;;;;;4897079;29;20037;-86
2021/06/21 06:25:16;;;;;;;0.10;0.10;;;;;;;;;;4897060;29;20043;-86
2021/06/21 06:27:42;;;;;;;0.10;0.10;;;;;;;;;;4897210;29;20044;-89
2021/06/21 06:30:08;;;;;;;0.10;0.10;;;;;;;;;;4897125;29;20154;-87
2021/06/21 06:32:35;;;;;;;0.20;0.20;;;;;;;;;;4881379;29;20428;-88
2021/06/21 06:35:02;;;;;;;0.10;0.10;;;;;;;;;;4896941;29;20200;-87
2021/06/21 06:37:28;;;;;;;0.10;0.10;;;;;;;;;;4896783;29;20047;-87
2021/06/21 06:39:54;;;;;;;0.45;0.30;;;;;;;;;;4897073;29;20048;-89
2021/06/21 06:42:20;;;;;;;0.10;0.10;;;;;;;;;;4881809;29;20048;-89
2021/06/21 06:44:46;;;;;;;0.10;0.10;;;;;;;;;;4897055;29;20114;-88
2021/06/21 06:47:12;;;;;;;0.10;0.10;;;;;;;;;;4897154;29;20032;-89
2021/06/21 06:49:38;;;;;;;0.10;0.10;;;;;;;;;;4881290;29;20068;-88
2021/06/21 06:52:04;;;;;;;0.20;0.20;;;;;;;;;;4897142;29;20379;-88
2021/06/21 06:54:45;;;;;;;0.10;0.10;;;;;;;;;;4881234;29;20487;-89
2021/06/21 06:57:11;;;;;;;0.10;0.10;;;;;;;;;;4883939;29;20044;-89
2021/06/21 06:59:38;;;;;;;0.10;0.10;;;;;;;;;;4896876;29;20108;-89
2021/06/21 07:02:08;;;;;;;0.10;0.10;;;;;;;;;;4881264;29;20048;-88
2021/06/21 07:04:35;;;;;;;0.10;0.10;;;;;;;;;;4881105;29;20041;-89
2021/06/21 07:07:01;;;;;;;0.10;0.10;;;;;;;;;;4896790;29;20041;-89
2021/06/21 07:09:30;;;;;;;0.10;0.10;;;;;;;;;;4882651;29;20060;-91
2021/06/21 07:11:56;;;;;;;0.10;0.10;;;;;;;;;;4881589;29;20384;-90
2021/06/21 07:14:23;;;;;;;0.10;0.10;;;;;;;;;;4881374;29;20119;-91
2021/06/21 07:16:49;;;;;;;0.10;0.10;;;;;;;;;;4897084;29;20056;-91
2021/06/21 07:19:15;;;;;;;0.20;0.20;;;;;;;;;;4881884;29;20040;-91
2021/06/21 07:21:41;;;;;;;0.10;0.10;;;;;;;;;;4896445;29;20040;-93
2021/06/21 07:24:08;;;;;;;0.10;0.10;;;;;;;;;;4881760;29;20450;-91
2021/06/21 07:26:34;;;;;;;0.10;0.10;;;;;;;;;;4881432;29;20037;-89
2021/06/21 07:29:00;;;;;;;0.17;0.17;;;;;;;;;;4880838;29;20048;-88
2021/06/21 07:31:26;;;;;;;0.20;0.20;;;;;;;;;;4880418;29;20036;-89
2021/06/21 07:33:52;;;;;;;0.10;0.10;;;;;;;;;;4880787;29;20057;-89
2021/06/21 07:36:18;;;;;;;0.22;0.22;;;;;;;;;;4876810;29;20115;-88
2021/06/21 07:38:44;;;;;;;0.10;0.10;;;;;;;;;;4895794;29;20052;-88
2021/06/21 07:41:10;;;;;;;0.10;0.10;;;;;;;;;;4879954;29;20170;-88
2021/06/21 07:43:36;;;;;;;0.10;0.10;;;;;;;;;;4895625;29;20044;-89
2021/06/21 07:46:03;;;;;;;0.10;0.10;;;;;;;;;;4880086;29;20147;-88
2021/06/21 07:48:29;;;;;;;0.10;0.10;;;;;;;;;;4880541;29;20056;-89
2021/06/21 07:50:55;;;;;;;0.10;0.10;;;;;;;;;;4880375;29;20048;-89
2021/06/21 07:53:21;;;;;;;0.10;0.10;;;;;;;;;;4880241;29;20136;-90
2021/06/21 07:55:47;;;;;;;0.10;0.10;;;;;;;;;;4896220;29;20384;-89
2021/06/21 07:58:13;;;;;;;0.10;0.10;;;;;;;;;;4896064;29;20079;-91
2021/06/21 08:00:40;;;;;;;0.10;0.10;;;;;;;;;;4880533;29;20045;-91
2021/06/21 08:03:09;;;;;;;0.20;0.20;;;;;;;;;;4881124;29;20053;-90
2021/06/21 08:05:36;;;;;;;0.10;0.10;;;;;;;;;;4880446;29;20059;-88
2021/06/21 08:08:02;;;;;;;0.20;0.20;;;;;;;;;;4879841;29;20110;-88
2021/06/21 08:10:30;;;;;;;0.15;0.15;;;;;;;;;;4897100;29;20068;-90
2021/06/21 08:12:56;;;;;;;0.20;0.20;;;;;;;;;;4880896;29;20072;-91
2021/06/21 08:15:22;;;;;;;0.22;0.20;;;;;;;;;;4896328;29;20410;-90
2021/06/21 08:17:48;;;;;;;0.10;0.10;;;;;;;;;;4879688;29;20503;-88
2021/06/21 08:20:14;;;;;;;0.10;0.10;;;;;;;;;;4879915;29;20414;-90
2021/06/21 08:22:40;;;;;;;0.10;0.10;;;;;;;;;;4895186;29;20048;-87
2021/06/21 08:25:06;;;;;;;0.10;0.10;;;;;;;;;;4879891;29;20451;-90
2021/06/21 08:27:32;;;;;;;0.10;0.10;;;;;;;;;;4895152;29;20047;-88
2021/06/21 08:29:59;;;;;;;0.10;0.10;;;;;;;;;;4895358;29;20100;-87
2021/06/21 08:32:25;;;;;;;0.10;0.10;;;;;;;;;;4897318;29;20045;-86
2021/06/21 08:34:51;;;;;;;0.10;0.10;;;;;;;;;;4883059;29;20055;-86
2021/06/21 08:37:20;;;;;;;0.10;0.10;;;;;;;;;;4898621;29;20044;-87
2021/06/21 08:39:46;;;;;;;0.10;0.10;;;;;;;;;;4883532;29;20149;-88
2021/06/21 08:42:12;;;;;;;0.10;0.10;;;;;;;;;;4882481;29;20055;-86
2021/06/21 08:44:41;;;;;;;0.10;0.10;;;;;;;;;;4898278;29;20045;-87
2021/06/21 08:47:07;;;;;;;0.32;0.32;;;;;;;;;;4898113;29;20048;-85
2021/06/21 08:49:37;;;;;;;0.10;0.10;;;;;;;;;;4898394;29;20047;-86
2021/06/21 08:52:03;;;;;;;0.20;0.20;;;;;;;;;;4899294;29;20051;-85
2021/06/21 08:54:29;;;;;;;0.10;0.10;;;;;;;;;;4882837;29;20410;-85
2021/06/21 08:56:57;;;;;;;0.10;0.10;;;;;;;;;;4882794;29;20053;-86
2021/06/21 08:59:23;;;;;;;0.10;0.10;;;;;;;;;;4899371;29;20123;-87
2021/06/21 09:01:49;;;;;;;0.30;0.30;;;;;;;;;;4882714;29;20471;-86
2021/06/21 09:04:16;;;;;;;0.10;0.10;;;;;;;;;;4898430;29;20120;-86
2021/06/21 09:06:43;;;;;;;1.27;0.20;;;;;;;;;;4897603;29;20040;-86
2021/06/21 09:09:09;;;;;;;0.10;0.10;;;;;;;;;;4867110;29;20045;-86
2021/06/21 09:11:46;;;;;;;0.20;0.20;;;;;;;;;;4897881;29;20044;-85
2021/06/21 09:14:28;;;;;;;0.10;0.10;;;;;;;;;;4899045;29;20077;-85
2021/06/21 09:17:01;;;;;;;0.10;0.10;;;;;;;;;;4897638;29;20052;-86
2021/06/21 09:19:27;;;;;;;0.10;0.10;;;;;;;;;;4882530;29;20100;-88
2021/06/21 09:21:53;;;;;;;0.10;0.10;;;;;;;;;;4882725;29;20116;-91
2021/06/21 09:24:28;;;;;;;0.10;0.10;;;;;;;;;;4883069;29;20072;-93
2021/06/21 09:27:03;;;;;;;0.10;0.10;;;;;;;;;;4883104;29;20072;-89
2021/06/21 09:29:33;;;;;;;0.10;0.10;;;;;;;;;;4897770;29;20402;-86
2021/06/21 09:31:59;;;;;;;0.10;0.10;;;;;;;;;;4896585;29;20055;-89
2021/06/21 09:34:25;;;;;;;0.10;0.10;;;;;;;;;;4882077;29;20052;-87
2021/06/21 09:36:52;;;;;;;0.20;0.20;;;;;;;;;;4882340;29;20550;-91
2021/06/21 09:39:28;;;;;;;0.10;0.10;;;;;;;;;;4866800;29;20052;-88
2021/06/21 09:42:10;;;;;;;0.10;0.10;;;;;;;;;;4881989;29;20384;-87
2021/06/21 09:44:39;;;;;;;0.10;0.10;;;;;;;;;;4898003;29;20376;-86
2021/06/21 09:47:15;;;;;;;0.43;0.43;;;;;;;;;;4898784;29;20104;-87
2021/06/21 09:50:00;;;;;;;0.20;0.20;;;;;;;;;;4881781;29;20053;-87
2021/06/21 09:52:37;;;;;;;0.20;0.20;;;;;;;;;;4897372;29;20037;-88
2021/06/21 09:55:13;;;;;;;0.20;0.20;;;;;;;;;;4848120;29;20059;-86
2021/06/21 09:57:39;;;;;;;0.10;0.10;;;;;;;;;;4878460;29;20101;-87
2021/06/21 10:00:06;;;;;;;0.20;0.20;;;;;;;;;;4847648;29;20519;-87
2021/06/21 10:02:32;;;;;;;0.10;0.10;;;;;;;;;;4880304;29;20037;-89
2021/06/21 10:04:58;;;;;;;0.10;0.10;;;;;;;;;;4862847;29;20102;-87
2021/06/21 10:07:36;;;;;;;0.10;0.10;;;;;;;;;;4878433;29;20048;-88
2021/06/21 10:10:04;;;;;;;0.10;0.10;;;;;;;;;;4849361;29;20468;-87
2021/06/21 10:12:32;;;;;;;0.10;0.10;;;;;;;;;;4896446;29;20044;-87
2021/06/21 10:14:58;;;;;;;0.10;0.10;;;;;;;;;;4896965;29;20045;-86
2021/06/21 10:17:24;;;;;;;0.15;0.15;;;;;;;;;;4896813;29;20493;-86
2021/06/21 10:19:50;;;;;;;0.20;0.20;;;;;;;;;;4896786;29;20108;-87
2021/06/21 10:22:19;;;;;;;0.10;0.10;;;;;;;;;;4881253;29;20049;-89
2021/06/21 10:24:46;;;;;;;0.10;0.10;;;;;;;;;;4896942;29;20039;-92
2021/06/21 10:27:13;;;;;;;0.10;0.10;;;;;;;;;;4865267;29;20107;-87
2021/06/21 10:29:39;;;;;;;0.10;0.10;;;;;;;;;;4896499;29;20139;-87
2021/06/21 10:32:06;;;;;;;0.10;0.10;;;;;;;;;;4865339;29;20063;-87
2021/06/21 10:34:32;;;;;;;0.10;0.10;;;;;;;;;;4880917;29;20127;-87
2021/06/21 10:36:58;;;;;;;0.32;0.32;;;;;;;;;;4880756;29;20044;-87
2021/06/21 10:39:25;;;;;;;0.45;0.45;;;;;;;;;;4880869;29;20044;-87
2021/06/21 10:42:10;;;;;;;0.10;0.10;;;;;;;;;;4865096;29;20056;-87
2021/06/21 10:44:37;;;;;;;0.10;0.10;;;;;;;;;;4896010;29;20117;-86
2021/06/21 10:47:22;;;;;;;0.10;0.10;;;;;;;;;;4865246;29;20454;-88
2021/06/21 10:49:57;;;;;;;0.10;0.10;;;;;;;;;;4897553;29;20041;-91
2021/06/21 10:52:30;;;;;;;0.10;0.10;;;;;;;;;;4897303;29;20087;-87
2021/06/21 10:55:16;;;;;;;0.10;0.10;;;;;;;;;;4896175;29;20041;-87
2021/06/21 10:57:42;;;;;;;0.10;0.10;;;;;;;;;;4896935;29;20040;-87
2021/06/21 11:00:10;;;;;;;0.10;0.10;;;;;;;;;;4896973;29;20410;-86
2021/06/21 11:02:37;;;;;;;0.10;0.10;;;;;;;;;;4880108;29;20056;-87
2021/06/21 11:05:03;;;;;;;0.10;0.10;;;;;;;;;;4880209;29;20502;-87
2021/06/21 11:07:29;;;;;;;0.10;0.10;;;;;;;;;;4880182;29;20044;-87
2021/06/21 11:09:57;;;;;;;0.20;0.20;;;;;;;;;;4896022;29;20128;-87
2021/06/21 11:12:24;;;;;;;0.10;0.10;;;;;;;;;;4880564;29;20131;-90
2021/06/21 11:15:06;;;;;;;0.10;0.10;;;;;;;;;;4897011;29;20103;-87
2021/06/21 11:17:34;;;;;;;0.10;0.10;;;;;;;;;;4896591;29;20047;-87
2021/06/21 11:20:19;;;;;;;0.10;0.10;;;;;;;;;;4880385;29;20510;-87
2021/06/21 11:22:46;;;;;;;0.10;0.10;;;;;;;;;;4896748;29;20140;-84
2021/06/21 11:25:22;;;;;;;0.45;0.32;;;;;;;;;;4895518;29;20044;-85
2021/06/21 11:27:49;;;;;;;0.10;0.10;;;;;;;;;;4896503;29;20048;-85
2021/06/21 11:30:35;;;;;;;0.10;0.10;;;;;;;;;;4895574;29;20367;-85
2021/06/21 11:33:09;;;;;;;0.10;0.10;;;;;;;;;;4895512;29;20059;-85
2021/06/21 11:35:48;;;;;;;0.20;0.20;;;;;;;;;;4895473;29;20048;-85
2021/06/21 11:38:20;;;;;;;0.15;0.15;;;;;;;;;;4895448;29;20047;-86
2021/06/21 11:40:46;;;;;;;0.10;0.10;;;;;;;;;;4895334;29;20040;-85
2021/06/21 11:43:12;;;;;;;0.10;0.10;;;;;;;;;;4879997;29;20049;-85
2021/06/21 11:45:44;;;;;;;0.20;0.20;;;;;;;;;;4895433;29;20125;-85
2021/06/21 11:48:11;;;;;;;0.10;0.10;;;;;;;;;;4895385;29;20044;-85
2021/06/21 11:50:37;;;;;;;0.20;0.20;;;;;;;;;;4895459;29;20040;-85
2021/06/21 11:53:03;;;;;;;0.10;0.10;;;;;;;;;;4879820;29;20203;-85
2021/06/21 11:55:29;;;;;;;0.10;0.10;;;;;;;;;;4894564;29;20043;-87
2021/06/21 11:58:00;;;;;;;0.10;0.10;;;;;;;;;;4895583;29;20045;-85
2021/06/21 12:00:30;;;;;;;0.20;0.20;;;;;;;;;;4879455;29;20045;-86
2021/06/21 12:03:03;;;;;;;0.10;0.10;;;;;;;;;;4880120;29;20083;-86
2021/06/21 12:05:29;;;;;;;;;;;;;;;;;;4895763;29;20123;-87
2021/06/21 12:07:55;;;;;;;0.10;0.10;;;;;;;;;;4899631;29;20002;-85
2021/06/21 12:10:21;;;;;;;0.10;0.10;;;;;;;;;;4899018;29;20047;-86
2021/06/21 12:12:48;;;;;;;0.10;0.10;;;;;;;;;;4883439;29;20047;-85
2021/06/21 12:15:16;;;;;;;0.10;0.10;;;;;;;;;;4898820;29;20095;-85
2021/06/21 12:17:41;;;;;;;0.10;0.10;;;;;;;;;;4900137;29;20396;-85
2021/06/21 12:20:16;;;;;;;0.10;0.10;;;;;;;;;;4899243;29;20498;-85
2021/06/21 12:22:57;;;;;;;0.10;0.10;;;;;;;;;;4880430;29;20458;-85
2021/06/21 12:25:34;;;;;;;0.10;0.10;;;;;;;;;;4880105;29;20036;-85
2021/06/21 12:28:20;;;;;;;0.10;0.10;;;;;;;;;;4880014;29;20045;-84
2021/06/21 12:30:51;;;;;;;0.10;0.10;;;;;;;;;;4880030;29;20048;-85
2021/06/21 12:33:31;;;;;;;0.10;0.10;;;;;;;;;;4879782;29;20060;-87
2021/06/21 12:36:17;;;;;;;0.10;0.10;;;;;;;;;;4879804;29;20128;-86
2021/06/21 12:38:46;;;;;;;0.10;0.10;;;;;;;;;;4879845;29;20044;-87
2021/06/21 12:41:15;;;;;;;0.10;0.10;;;;;;;;;;4881258;29;20140;-88
2021/06/21 12:43:42;;;;;;;0.10;0.10;;;;;;;;;;4879842;29;20049;-88
2021/06/21 12:46:20;;;;;;;0.10;0.10;;;;;;;;;;4864586;29;20045;-87
2021/06/21 12:48:46;;;;;;;0.10;0.10;;;;;;;;;;4879657;29;20040;-88
2021/06/21 12:51:13;;;;;;;0.10;0.10;;;;;;;;;;4879727;29;20052;-92
2021/06/21 12:53:43;;;;;;;0.10;0.10;;;;;;;;;;4879634;29;20037;-88
2021/06/21 12:56:17;;;;;;;0.10;0.10;;;;;;;;;;4879737;29;20048;-88
2021/06/21 12:58:43;;;;;;;0.20;0.20;;;;;;;;;;4882830;29;20149;-87
2021/06/21 13:01:19;;;;;;;0.10;0.10;;;;;;;;;;4898252;29;20095;-87
2021/06/21 13:03:45;;;;;;;0.10;0.10;;;;;;;;;;4882776;29;20040;-87
2021/06/21 13:06:11;;;;;;;0.10;0.10;;;;;;;;;;4898634;29;20417;-90
2021/06/21 13:08:38;;;;;;;0.10;0.10;;;;;;;;;;4898227;29;20041;-87
2021/06/21 13:11:12;;;;;;;0.10;0.10;;;;;;;;;;4898298;29;20041;-87
2021/06/21 13:13:38;;;;;;;0.10;0.10;;;;;;;;;;4897960;29;20395;-87
2021/06/21 13:16:10;;;;;;;0.10;0.10;;;;;;;;;;4897962;29;20048;-87
2021/06/21 13:19:05;;;;;;;0.10;0.10;;;;;;;;;;4897718;29;20128;-86
2021/06/21 13:21:38;;;;;;;0.20;0.20;;;;;;;;;;4897621;29;20056;-88
2021/06/21 13:24:04;;;;;;;0.17;0.17;;;;;;;;;;4882241;29;20049;-87
2021/06/21 13:26:31;;;;;;;0.10;0.10;;;;;;;;;;4897871;29;20049;-87
2021/06/21 13:28:57;;;;;;;0.10;0.10;;;;;;;;;;4866687;29;20049;-86
2021/06/21 13:31:24;;;;;;;0.10;0.10;;;;;;;;;;4882101;29;20032;-87
2021/06/21 13:33:51;;;;;;;0.20;0.20;;;;;;;;;;4882409;29;20482;-92
2021/06/21 13:36:17;;;;;;;0.10;0.10;;;;;;;;;;4866773;29;20068;-86
2021/06/21 13:38:45;;;;;;;0.15;0.15;;;;;;;;;;4897235;29;20044;-88
2021/06/21 13:41:22;;;;;;;0.20;0.20;;;;;;;;;;4882349;29;20040;-87
2021/06/21 13:43:48;;;;;;;0.10;0.10;;;;;;;;;;4882016;29;20466;-86
2021/06/21 13:46:15;;;;;;;0.20;0.20;;;;;;;;;;4897476;29;20410;-84
2021/06/21 13:48:42;;;;;;;0.20;0.20;;;;;;;;;;4897266;29;20040;-85
2021/06/21 13:51:12;;;;;;;0.10;0.10;;;;;;;;;;4881740;29;20417;-85
2021/06/21 13:53:38;;;;;;;0.20;0.20;;;;;;;;;;4896683;29;20040;-86
2021/06/21 13:56:05;;;;;;;0.10;0.10;;;;;;;;;;4896981;29;20161;-86
2021/06/21 13:58:32;;;;;;;0.13;0.13;;;;;;;;;;4880771;29;20509;-86
2021/06/21 14:01:07;;;;;;;0.10;0.10;;;;;;;;;;4897392;29;20043;-86
2021/06/21 14:03:33;;;;;;;0.10;0.10;;;;;;;;;;4897145;29;20103;-86
2021/06/21 14:06:00;;;;;;;0.10;0.10;;;;;;;;;;4897169;29;20048;-86
2021/06/21 14:08:27;;;;;;;0.10;0.10;;;;;;;;;;4898247;29;20132;-86
2021/06/21 14:10:54;;;;;;;0.10;0.10;;;;;;;;;;4881644;29;20120;-87
2021/06/21 14:13:20;;;;;;;0.20;0.20;;;;;;;;;;4898391;29;20045;-86
2021/06/21 14:15:46;;;;;;;0.20;0.20;;;;;;;;;;4881239;29;20491;-85
2021/06/21 14:18:14;;;;;;;0.28;0.28;;;;;;;;;;4896866;29;20060;-85
2021/06/21 14:20:40;;;;;;;0.20;0.20;;;;;;;;;;4880502;29;20522;-85
2021/06/21 14:23:08;;;;;;;0.10;0.10;;;;;;;;;;4865797;29;20415;-86
2021/06/21 14:25:35;;;;;;;0.10;0.10;;;;;;;;;;4896575;29;20041;-85
2021/06/21 14:28:01;;;;;;;0.20;0.20;;;;;;;;;;4880974;29;20044;-86
2021/06/21 14:30:28;;;;;;;0.20;0.20;;;;;;;;;;4896128;29;20441;-86
2021/06/21 14:32:53;;;;;;;0.55;0.25;;;;;;;;;;4896060;29;20407;-85
2021/06/21 14:35:19;;;;;;;0.10;0.10;;;;;;;;;;4895817;29;20055;-85
2021/06/21 14:37:45;;;;;;;0.10;0.10;;;;;;;;;;4879550;29;20045;-85
2021/06/21 14:40:12;;;;;;;0.20;0.20;;;;;;;;;;4896720;29;20047;-85
2021/06/21 14:42:38;;;;;;;0.20;0.20;;;;;;;;;;4880432;29;20092;-85
2021/06/21 14:45:05;;;;;;;0.10;0.10;;;;;;;;;;4895000;29;20144;-85
2021/06/21 14:47:31;;;;;;;0.25;0.25;;;;;;;;;;4895632;29;20040;-85